Nichioh Maru — JD3267 — position and weather

sailwx.info

Track history (hours):
 
Tides and Currents Weather Stations Pressure Air Temp Water Temp Dewpoint Dewpoint Depression Visibility Wind Speed Wind Dir Waves Ship Positions

Nichioh Maru

Last reported at 2016-May-28 14:14 UTC. Time now 2016-May-29 00:04 UTC.
Position N 34°32' E 138°35'.

Length 170 m; draft 6.5 m.

Type: Cargo ship. MMSI: 431003232.

Date/timePositionNaut miles runAvg speedWind from/ knotsBaromVisibWave heightAir tempDewpointWater temp
2016-May-28 14:14N 34°32' E 138°35'5018.7
2016-May-28 11:33N 34°58' E 139°27'1918.9
2016-May-28 10:33N 35°10' E 139°45'1312.9
2016-May-28 09:34N 35°23' E 139°42'8 7.8
2016-May-28 08:31N 35°30' E 139°46'0 0.0
2016-May-28 07:32N 35°30' E 139°46'0 0.0
2016-May-28 06:31N 35°30' E 139°46'0 0.0
2016-May-28 05:32N 35°30' E 139°46'0 0.0
2016-May-28 04:31N 35°30' E 139°46'0 0.0
2016-May-28 03:31N 35°30' E 139°46'0 0.0
2016-May-28 02:33N 35°30' E 139°46'6 6.3
2016-May-28 01:33N 35°24' E 139°46'8 7.3
2016-May-28 00:29N 35°19' E 139°39'0 0.0
2016-May-27 23:32N 35°19' E 139°39'0 0.0
2016-May-27 22:32N 35°19' E 139°39'5 5.5
2016-May-27 21:33N 35°17' E 139°45'1312.9
2016-May-27 20:33N 35°05' E 139°41'1615.7
2016-May-27 19:32N 34°54' E 139°27'22515.0
2016-May-27 04:33N 34°11' E 134°58'1918.8
2016-May-27 03:33N 34°28' E 135°07'1413.9
2016-May-27 02:33N 34°41' E 135°14'0 0.1
2016-May-27 01:29N 34°41' E 135°13'0 0.0
2016-May-27 00:29N 34°41' E 135°13'0 0.0
2016-May-26 23:29N 34°41' E 135°13'3 2.8
2016-May-26 22:33N 34°39' E 135°16'2 2.1
2016-May-26 21:29N 34°37' E 135°16'0 0.1
2016-May-26 20:29N 34°37' E 135°16'0 0.0
2016-May-26 19:29N 34°37' E 135°16'0 0.0
2016-May-26 18:23N 34°37' E 135°16'0 0.0
2016-May-26 17:23N 34°37' E 135°16'0 0.0
2016-May-26 16:29N 34°37' E 135°16'0 0.0
2016-May-26 15:32N 34°37' E 135°16'0 0.0
2016-May-26 14:23N 34°37' E 135°16'0 0.0
2016-May-26 13:29N 34°37' E 135°16'0 0.0
2016-May-26 12:29N 34°37' E 135°16'0 0.0
2016-May-26 11:29N 34°37' E 135°16'0 0.0
2016-May-26 10:23N 34°37' E 135°16'0 0.0
2016-May-26 09:23N 34°37' E 135°16'0 0.0
2016-May-26 08:29N 34°37' E 135°16'9 9.9
2016-May-26 07:34N 34°35' E 135°05'  
2016-May-23 03:32N 34°35' E 134°52'1717.5
2016-May-23 02:33N 34°37' E 135°13'4 3.3
2016-May-23 01:22N 34°41' E 135°13'0 0.0
2016-May-23 00:28N 34°41' E 135°13'0 0.0
2016-May-22 23:28N 34°41' E 135°13'4 4.2
2016-May-22 22:33N 34°38' E 135°17'1312.6
2016-May-22 21:33N 34°28' E 135°09'1514.5
2016-May-22 20:33N 34°15' E 134°59'1717.0
2016-May-22 19:34N 33°59' E 134°60'176 6.7
2016-May-21 17:07N 34°33' E 138°29'5715.8
2016-May-21 13:32N 34°60' E 139°30'1515.2
2016-May-21 12:33N 35°09' E 139°44'1312.8
2016-May-21 11:33N 35°21' E 139°42'10 9.1
2016-May-21 10:31N 35°30' E 139°46'0 0.0
2016-May-21 09:31N 35°30' E 139°46'0 0.0
2016-May-21 08:28N 35°30' E 139°46'0 0.0
2016-May-21 07:31N 35°30' E 139°46'0 0.0
2016-May-21 06:31N 35°30' E 139°46'0 0.0
2016-May-21 05:31N 35°30' E 139°46'0 0.0
2016-May-21 04:31N 35°30' E 139°46'0 0.0
2016-May-21 03:31N 35°30' E 139°46'2 1.7
2016-May-21 02:33N 35°30' E 139°44'9 9.1
2016-May-21 01:33N 35°21' E 139°45'5 4.9
2016-May-21 00:32N 35°19' E 139°39'0 0.0
2016-May-20 23:34N 35°19' E 139°39'5 5.3
2016-May-20 22:33N 35°17' E 139°45'1212.1
2016-May-20 21:33N 35°05' E 139°46'1715.1
2016-May-20 20:25N 34°54' E 139°29'5115.8
2016-May-20 17:11N 34°30' E 138°35'17914.2
2016-May-20 04:33N 34°12' E 134°59'1818.2
2016-May-20 03:33N 34°28' E 135°08'1313.3
2016-May-20 02:33N 34°41' E 135°14'0 0.1
2016-May-20 01:32N 34°41' E 135°13'0 0.0
2016-May-20 00:26N 34°41' E 135°13'0 0.0
2016-May-19 23:32N 34°41' E 135°13'1 1.5
2016-May-19 22:33N 34°40' E 135°15'3 1.6
2016-May-19 20:25N 34°37' E 135°16'0 0.0
2016-May-19 19:31N 34°37' E 135°16'0 0.0
2016-May-19 18:31N 34°37' E 135°16'0 0.0
2016-May-19 17:31N 34°37' E 135°16'0 0.0
2016-May-19 16:31N 34°37' E 135°16'0 0.0
2016-May-19 15:31N 34°37' E 135°16'0 0.0
2016-May-19 14:19N 34°37' E 135°16'0 0.0
2016-May-19 13:31N 34°37' E 135°16'0 0.0
2016-May-19 12:31N 34°37' E 135°16'0 0.0
2016-May-19 11:31N 34°37' E 135°16'0 0.0
2016-May-19 10:25N 34°37' E 135°16'0 0.1
2016-May-19 09:31N 34°37' E 135°16'0 0.0
2016-May-19 08:25N 34°37' E 135°16'0 0.0
2016-May-19 07:19N 34°37' E 135°16'911.6
2016-May-19 06:33N 34°35' E 135°06'  
Track history (hours):
 
Tides and Currents Weather Stations Pressure Air Temp Water Temp Dewpoint Dewpoint Depression Visibility Wind Speed Wind Dir Waves Ship Positions

Nichioh Maru

Last reported at 2016-May-28 14:14 UTC. Time now 2016-May-29 00:04 UTC.
Position N 34°32' E 138°35'.

Length 170 m; draft 6.5 m.

Type: Cargo ship. MMSI: 431003232.

Date/timePositionNaut miles runAvg speedWind from/ knotsBaromVisibWave heightAir tempDewpointWater temp
2016-May-28 14:14N 34°32' E 138°35'5018.7
2016-May-28 11:33N 34°58' E 139°27'1918.9
2016-May-28 10:33N 35°10' E 139°45'1312.9
2016-May-28 09:34N 35°23' E 139°42'8 7.8
2016-May-28 08:31N 35°30' E 139°46'0 0.0
2016-May-28 07:32N 35°30' E 139°46'0 0.0
2016-May-28 06:31N 35°30' E 139°46'0 0.0
2016-May-28 05:32N 35°30' E 139°46'0 0.0
2016-May-28 04:31N 35°30' E 139°46'0 0.0
2016-May-28 03:31N 35°30' E 139°46'0 0.0
2016-May-28 02:33N 35°30' E 139°46'6 6.3
2016-May-28 01:33N 35°24' E 139°46'8 7.3
2016-May-28 00:29N 35°19' E 139°39'0 0.0
2016-May-27 23:32N 35°19' E 139°39'0 0.0
2016-May-27 22:32N 35°19' E 139°39'5 5.5
2016-May-27 21:33N 35°17' E 139°45'1312.9
2016-May-27 20:33N 35°05' E 139°41'1615.7
2016-May-27 19:32N 34°54' E 139°27'22515.0
2016-May-27 04:33N 34°11' E 134°58'1918.8
2016-May-27 03:33N 34°28' E 135°07'1413.9
2016-May-27 02:33N 34°41' E 135°14'0 0.1
2016-May-27 01:29N 34°41' E 135°13'0 0.0
2016-May-27 00:29N 34°41' E 135°13'0 0.0
2016-May-26 23:29N 34°41' E 135°13'3 2.8
2016-May-26 22:33N 34°39' E 135°16'2 2.1
2016-May-26 21:29N 34°37' E 135°16'0 0.1
2016-May-26 20:29N 34°37' E 135°16'0 0.0
2016-May-26 19:29N 34°37' E 135°16'0 0.0
2016-May-26 18:23N 34°37' E 135°16'0 0.0
2016-May-26 17:23N 34°37' E 135°16'0 0.0
2016-May-26 16:29N 34°37' E 135°16'0 0.0
2016-May-26 15:32N 34°37' E 135°16'0 0.0
2016-May-26 14:23N 34°37' E 135°16'0 0.0
2016-May-26 13:29N 34°37' E 135°16'0 0.0
2016-May-26 12:29N 34°37' E 135°16'0 0.0
2016-May-26 11:29N 34°37' E 135°16'0 0.0
2016-May-26 10:23N 34°37' E 135°16'0 0.0
2016-May-26 09:23N 34°37' E 135°16'0 0.0
2016-May-26 08:29N 34°37' E 135°16'9 9.9
2016-May-26 07:34N 34°35' E 135°05'  
2016-May-23 03:32N 34°35' E 134°52'1717.5
2016-May-23 02:33N 34°37' E 135°13'4 3.3
2016-May-23 01:22N 34°41' E 135°13'0 0.0
2016-May-23 00:28N 34°41' E 135°13'0 0.0
2016-May-22 23:28N 34°41' E 135°13'4 4.2
2016-May-22 22:33N 34°38' E 135°17'1312.6
2016-May-22 21:33N 34°28' E 135°09'1514.5
2016-May-22 20:33N 34°15' E 134°59'1717.0
2016-May-22 19:34N 33°59' E 134°60'176 6.7
2016-May-21 17:07N 34°33' E 138°29'5715.8
2016-May-21 13:32N 34°60' E 139°30'1515.2
2016-May-21 12:33N 35°09' E 139°44'1312.8
2016-May-21 11:33N 35°21' E 139°42'10 9.1
2016-May-21 10:31N 35°30' E 139°46'0 0.0
2016-May-21 09:31N 35°30' E 139°46'0 0.0
2016-May-21 08:28N 35°30' E 139°46'0 0.0
2016-May-21 07:31N 35°30' E 139°46'0 0.0
2016-May-21 06:31N 35°30' E 139°46'0 0.0
2016-May-21 05:31N 35°30' E 139°46'0 0.0
2016-May-21 04:31N 35°30' E 139°46'0 0.0
2016-May-21 03:31N 35°30' E 139°46'2 1.7
2016-May-21 02:33N 35°30' E 139°44'9 9.1
2016-May-21 01:33N 35°21' E 139°45'5 4.9
2016-May-21 00:32N 35°19' E 139°39'0 0.0
2016-May-20 23:34N 35°19' E 139°39'5 5.3
2016-May-20 22:33N 35°17' E 139°45'1212.1
2016-May-20 21:33N 35°05' E 139°46'1715.1
2016-May-20 20:25N 34°54' E 139°29'5115.8
2016-May-20 17:11N 34°30' E 138°35'17914.2
2016-May-20 04:33N 34°12' E 134°59'1818.2
2016-May-20 03:33N 34°28' E 135°08'1313.3
2016-May-20 02:33N 34°41' E 135°14'0 0.1
2016-May-20 01:32N 34°41' E 135°13'0 0.0
2016-May-20 00:26N 34°41' E 135°13'0 0.0
2016-May-19 23:32N 34°41' E 135°13'1 1.5
2016-May-19 22:33N 34°40' E 135°15'3 1.6
2016-May-19 20:25N 34°37' E 135°16'0 0.0
2016-May-19 19:31N 34°37' E 135°16'0 0.0
2016-May-19 18:31N 34°37' E 135°16'0 0.0
2016-May-19 17:31N 34°37' E 135°16'0 0.0
2016-May-19 16:31N 34°37' E 135°16'0 0.0
2016-May-19 15:31N 34°37' E 135°16'0 0.0
2016-May-19 14:19N 34°37' E 135°16'0 0.0
2016-May-19 13:31N 34°37' E 135°16'0 0.0
2016-May-19 12:31N 34°37' E 135°16'0 0.0
2016-May-19 11:31N 34°37' E 135°16'0 0.0
2016-May-19 10:25N 34°37' E 135°16'0 0.1
2016-May-19 09:31N 34°37' E 135°16'0 0.0
2016-May-19 08:25N 34°37' E 135°16'0 0.0
2016-May-19 07:19N 34°37' E 135°16'911.6
2016-May-19 06:33N 34°35' E 135°06'  

Dump ship's entire track history